sensor_id;sensor_type;location;lat;lon;timestamp;pressure;altitude;pressure_sealevel;temperature;humidity
10071;BME280;5074;53.720;10.014;2023-06-10T00:01:13;101538.47;;;13.54;100.00
10071;BME280;5074;53.720;10.014;2023-06-10T00:03:41;101528.06;;;13.43;100.00
10071;BME280;5074;53.720;10.014;2023-06-10T00:06:10;101534.47;;;13.41;100.00
10071;BME280;5074;53.720;10.014;2023-06-10T00:08:38;101540.81;;;13.38;100.00
10071;BME280;5074;53.720;10.014;2023-06-10T00:11:06;101548.06;;;13.34;100.00
10071;BME280;5074;53.720;10.014;2023-06-10T00:13:34;101547.63;;;13.20;100.00
10071;BME280;5074;53.720;10.014;2023-06-10T00:16:04;101543.22;;;13.19;100.00
10071;BME280;5074;53.720;10.014;2023-06-10T00:18:33;101543.97;;;13.23;100.00
10071;BME280;5074;53.720;10.014;2023-06-10T00:21:03;101539.63;;;13.18;100.00
10071;BME280;5074;53.720;10.014;2023-06-10T00:23:32;101538.00;;;13.14;100.00
10071;BME280;5074;53.720;10.014;2023-06-10T00:26:04;101542.47;;;13.14;100.00
10071;BME280;5074;53.720;10.014;2023-06-10T00:28:33;101532.66;;;13.14;100.00
10071;BME280;5074;53.720;10.014;2023-06-10T00:31:01;101534.84;;;13.01;100.00
10071;BME280;5074;53.720;10.014;2023-06-10T00:33:29;101537.53;;;13.01;100.00
10071;BME280;5074;53.720;10.014;2023-06-10T00:35:59;101526.19;;;12.93;100.00
10071;BME280;5074;53.720;10.014;2023-06-10T00:38:27;101533.34;;;12.93;100.00
10071;BME280;5074;53.720;10.014;2023-06-10T00:40:55;101530.69;;;12.91;100.00
10071;BME280;5074;53.720;10.014;2023-06-10T00:43:23;101525.66;;;12.82;100.00
10071;BME280;5074;53.720;10.014;2023-06-10T00:45:51;101535.50;;;12.81;100.00
10071;BME280;5074;53.720;10.014;2023-06-10T00:48:20;101532.94;;;12.78;100.00
10071;BME280;5074;53.720;10.014;2023-06-10T00:50:48;101530.25;;;12.77;100.00
10071;BME280;5074;53.720;10.014;2023-06-10T00:53:18;101540.22;;;12.73;100.00
10071;BME280;5074;53.720;10.014;2023-06-10T00:55:47;101529.00;;;12.60;100.00
10071;BME280;5074;53.720;10.014;2023-06-10T00:58:15;101536.16;;;12.61;100.00
10071;BME280;5074;53.720;10.014;2023-06-10T01:00:44;101548.94;;;12.51;100.00
10071;BME280;5074;53.720;10.014;2023-06-10T01:03:13;101536.47;;;12.50;100.00
10071;BME280;5074;53.720;10.014;2023-06-10T01:05:46;101542.81;;;12.48;100.00
10071;BME280;5074;53.720;10.014;2023-06-10T01:08:24;101538.53;;;12.42;100.00
10071;BME280;5074;53.720;10.014;2023-06-10T01:11:00;101542.06;;;12.43;100.00
10071;BME280;5074;53.720;10.014;2023-06-10T01:13:29;101543.22;;;12.34;100.00
10071;BME280;5074;53.720;10.014;2023-06-10T01:15:58;101539.59;;;12.37;100.00
10071;BME280;5074;53.720;10.014;2023-06-10T01:18:30;101532.16;;;12.45;100.00
10071;BME280;5074;53.720;10.014;2023-06-10T01:20:59;101537.53;;;12.45;100.00
10071;BME280;5074;53.720;10.014;2023-06-10T01:23:28;101533.16;;;12.42;100.00
10071;BME280;5074;53.720;10.014;2023-06-10T01:26:00;101544.94;;;12.37;100.00
10071;BME280;5074;53.720;10.014;2023-06-10T01:28:33;101546.88;;;12.31;100.00
10071;BME280;5074;53.720;10.014;2023-06-10T01:31:08;101538.22;;;12.22;100.00
10071;BME280;5074;53.720;10.014;2023-06-10T01:33:41;101538.38;;;12.17;100.00
10071;BME280;5074;53.720;10.014;2023-06-10T01:36:11;101546.47;;;12.15;100.00
10071;BME280;5074;53.720;10.014;2023-06-10T01:38:43;101546.41;;;12.17;100.00
10071;BME280;5074;53.720;10.014;2023-06-10T01:41:13;101550.16;;;12.11;100.00
10071;BME280;5074;53.720;10.014;2023-06-10T01:43:43;101557.38;;;12.09;100.00
10071;BME280;5074;53.720;10.014;2023-06-10T01:46:11;101558.50;;;12.01;100.00
10071;BME280;5074;53.720;10.014;2023-06-10T01:48:40;101551.38;;;11.99;100.00
10071;BME280;5074;53.720;10.014;2023-06-10T01:51:09;101550.53;;;11.99;100.00
10071;BME280;5074;53.720;10.014;2023-06-10T01:53:37;101539.16;;;11.89;100.00
10071;BME280;5074;53.720;10.014;2023-06-10T01:56:06;101548.94;;;11.90;100.00
10071;BME280;5074;53.720;10.014;2023-06-10T01:58:34;101543.63;;;11.89;100.00
10071;BME280;5074;53.720;10.014;2023-06-10T02:01:02;101532.03;;;11.88;100.00
10071;BME280;5074;53.720;10.014;2023-06-10T02:03:31;101544.47;;;11.91;100.00
10071;BME280;5074;53.720;10.014;2023-06-10T02:05:59;101539.25;;;11.86;100.00
10071;BME280;5074;53.720;10.014;2023-06-10T02:08:27;101546.34;;;11.87;100.00
10071;BME280;5074;53.720;10.014;2023-06-10T02:10:55;101545.41;;;11.88;100.00
10071;BME280;5074;53.720;10.014;2023-06-10T02:13:25;101542.78;;;11.87;100.00
10071;BME280;5074;53.720;10.014;2023-06-10T02:15:53;101541.97;;;11.85;100.00
10071;BME280;5074;53.720;10.014;2023-06-10T02:18:21;101543.88;;;11.79;100.00
10071;BME280;5074;53.720;10.014;2023-06-10T02:20:49;101536.03;;;11.73;100.00
10071;BME280;5074;53.720;10.014;2023-06-10T02:23:17;101534.41;;;11.68;100.00
10071;BME280;5074;53.720;10.014;2023-06-10T02:25:45;101535.47;;;11.60;100.00
10071;BME280;5074;53.720;10.014;2023-06-10T02:28:14;101542.56;;;11.63;100.00
10071;BME280;5074;53.720;10.014;2023-06-10T02:30:44;101547.81;;;11.66;100.00
10071;BME280;5074;53.720;10.014;2023-06-10T02:33:13;101545.28;;;11.61;100.00
10071;BME280;5074;53.720;10.014;2023-06-10T02:35:42;101545.28;;;11.61;100.00
10071;BME280;5074;53.720;10.014;2023-06-10T02:38:10;101538.16;;;11.60;100.00
10071;BME280;5074;53.720;10.014;2023-06-10T02:40:38;101538.16;;;11.60;100.00
10071;BME280;5074;53.720;10.014;2023-06-10T02:43:06;101538.38;;;11.53;100.00
10071;BME280;5074;53.720;10.014;2023-06-10T02:45:34;101536.66;;;11.50;100.00
10071;BME280;5074;53.720;10.014;2023-06-10T02:48:04;101547.31;;;11.52;100.00
10071;BME280;5074;53.720;10.014;2023-06-10T02:50:32;101542.91;;;11.49;100.00
10071;BME280;5074;53.720;10.014;2023-06-10T02:53:00;101548.09;;;11.55;100.00
10071;BME280;5074;53.720;10.014;2023-06-10T02:55:28;101544.44;;;11.59;100.00
10071;BME280;5074;53.720;10.014;2023-06-10T02:57:57;101540.06;;;11.55;100.00
10071;BME280;5074;53.720;10.014;2023-06-10T03:00:26;101539.84;;;11.64;100.00
10071;BME280;5074;53.720;10.014;2023-06-10T03:02:55;101539.94;;;11.61;100.00
10071;BME280;5074;53.720;10.014;2023-06-10T03:05:25;101545.25;;;11.63;100.00
10071;BME280;5074;53.720;10.014;2023-06-10T03:07:53;101537.34;;;11.58;100.00
10071;BME280;5074;53.720;10.014;2023-06-10T03:10:22;101542.69;;;11.58;100.00
10071;BME280;5074;53.720;10.014;2023-06-10T03:12:50;101541.66;;;11.62;100.00
10071;BME280;5074;53.720;10.014;2023-06-10T03:15:18;101544.25;;;11.67;100.00
10071;BME280;5074;53.720;10.014;2023-06-10T03:17:47;101549.56;;;11.69;100.00
10071;BME280;5074;53.720;10.014;2023-06-10T03:20:15;101549.47;;;11.72;100.00
10071;BME280;5074;53.720;10.014;2023-06-10T03:22:45;101549.50;;;11.70;100.00
10071;BME280;5074;53.720;10.014;2023-06-10T03:25:13;101554.91;;;11.69;100.00
10071;BME280;5074;53.720;10.014;2023-06-10T03:27:42;101556.59;;;11.71;100.00
10071;BME280;5074;53.720;10.014;2023-06-10T03:30:11;101560.94;;;11.75;100.00
10071;BME280;5074;53.720;10.014;2023-06-10T03:32:40;101557.50;;;11.72;100.00
10071;BME280;5074;53.720;10.014;2023-06-10T03:35:08;101561.91;;;11.74;100.00
10071;BME280;5074;53.720;10.014;2023-06-10T03:37:37;101562.66;;;11.78;100.00
10071;BME280;5074;53.720;10.014;2023-06-10T03:40:08;101559.72;;;11.87;100.00
10071;BME280;5074;53.720;10.014;2023-06-10T03:42:36;101553.50;;;11.87;100.00
10071;BME280;5074;53.720;10.014;2023-06-10T03:45:05;101556.09;;;11.90;100.00
10071;BME280;5074;53.720;10.014;2023-06-10T03:47:34;101555.22;;;11.89;100.00
10071;BME280;5074;53.720;10.014;2023-06-10T03:50:04;101557.63;;;12.00;100.00
10071;BME280;5074;53.720;10.014;2023-06-10T03:52:33;101545.94;;;12.03;100.00
10071;BME280;5074;53.720;10.014;2023-06-10T03:55:01;101538.59;;;12.09;100.00
10071;BME280;5074;53.720;10.014;2023-06-10T03:57:30;101546.56;;;12.12;100.00
10071;BME280;5074;53.720;10.014;2023-06-10T03:59:58;101559.66;;;12.22;100.00
10071;BME280;5074;53.720;10.014;2023-06-10T04:02:26;101555.22;;;12.22;100.00
10071;BME280;5074;53.720;10.014;2023-06-10T04:04:55;101551.47;;;12.28;100.00
10071;BME280;5074;53.720;10.014;2023-06-10T04:07:23;101555.00;;;12.28;100.00
10071;BME280;5074;53.720;10.014;2023-06-10T04:09:53;101561.00;;;12.38;100.00
10071;BME280;5074;53.720;10.014;2023-06-10T04:12:22;101569.78;;;12.42;100.00
10071;BME280;5074;53.720;10.014;2023-06-10T04:14:51;101560.75;;;12.46;100.00
10071;BME280;5074;53.720;10.014;2023-06-10T04:17:19;101562.31;;;12.53;100.00
10071;BME280;5074;53.720;10.014;2023-06-10T04:19:47;101566.72;;;12.56;100.00
10071;BME280;5074;53.720;10.014;2023-06-10T04:22:15;101562.22;;;12.56;100.00
10071;BME280;5074;53.720;10.014;2023-06-10T04:24:44;101565.69;;;12.60;100.00
10071;BME280;5074;53.720;10.014;2023-06-10T04:27:12;101558.38;;;12.65;100.00
10071;BME280;5074;53.720;10.014;2023-06-10T04:29:40;101555.53;;;12.69;100.00
10071;BME280;5074;53.720;10.014;2023-06-10T04:32:10;101550.03;;;12.74;100.00
10071;BME280;5074;53.720;10.014;2023-06-10T04:34:38;101560.38;;;12.86;100.00
10071;BME280;5074;53.720;10.014;2023-06-10T04:37:06;101557.34;;;12.97;100.00
10071;BME280;5074;53.720;10.014;2023-06-10T04:39:35;101564.38;;;13.01;100.00
10071;BME280;5074;53.720;10.014;2023-06-10T04:42:05;101563.03;;;13.15;100.00
10071;BME280;5074;53.720;10.014;2023-06-10T04:44:33;101562.13;;;13.16;100.00
10071;BME280;5074;53.720;10.014;2023-06-10T04:47:02;101559.09;;;13.25;100.00
10071;BME280;5074;53.720;10.014;2023-06-10T04:49:33;101560.47;;;13.38;100.00
10071;BME280;5074;53.720;10.014;2023-06-10T04:52:03;101554.84;;;13.46;100.00
10071;BME280;5074;53.720;10.014;2023-06-10T04:54:32;101548.38;;;13.52;100.00
10071;BME280;5074;53.720;10.014;2023-06-10T04:57:00;101547.31;;;13.56;100.00
10071;BME280;5074;53.720;10.014;2023-06-10T04:59:28;101544.16;;;13.70;100.00
10071;BME280;5074;53.720;10.014;2023-06-10T05:01:56;101545.25;;;13.89;100.00
10071;BME280;5074;53.720;10.014;2023-06-10T05:04:25;101547.59;;;13.99;100.00
10071;BME280;5074;53.720;10.014;2023-06-10T05:06:55;101540.00;;;14.10;100.00
10071;BME280;5074;53.720;10.014;2023-06-10T05:09:23;101546.53;;;14.27;100.00
10071;BME280;5074;53.720;10.014;2023-06-10T05:11:52;101542.81;;;14.31;100.00
10071;BME280;5074;53.720;10.014;2023-06-10T05:14:21;101539.22;;;14.06;100.00
10071;BME280;5074;53.720;10.014;2023-06-10T05:16:49;101550.69;;;14.12;100.00
10071;BME280;5074;53.720;10.014;2023-06-10T05:19:17;101542.88;;;14.05;100.00
10071;BME280;5074;53.720;10.014;2023-06-10T05:21:46;101561.91;;;13.99;100.00
10071;BME280;5074;53.720;10.014;2023-06-10T05:24:16;101558.34;;;13.99;100.00
10071;BME280;5074;53.720;10.014;2023-06-10T05:26:44;101552.09;;;13.98;100.00
10071;BME280;5074;53.720;10.014;2023-06-10T05:29:12;101551.91;;;14.03;100.00
10071;BME280;5074;53.720;10.014;2023-06-10T05:31:41;101553.84;;;13.99;100.00
10071;BME280;5074;53.720;10.014;2023-06-10T05:34:10;101553.94;;;13.96;100.00
10071;BME280;5074;53.720;10.014;2023-06-10T05:36:38;101559.94;;;14.04;100.00
10071;BME280;5074;53.720;10.014;2023-06-10T05:39:06;101559.81;;;14.07;100.00
10071;BME280;5074;53.720;10.014;2023-06-10T05:41:35;101552.28;;;14.17;100.00
10071;BME280;5074;53.720;10.014;2023-06-10T05:44:03;101550.63;;;14.13;100.00
10071;BME280;5074;53.720;10.014;2023-06-10T05:46:32;101563.22;;;14.13;100.00
10071;BME280;5074;53.720;10.014;2023-06-10T05:49:00;101560.28;;;14.19;100.00
10071;BME280;5074;53.720;10.014;2023-06-10T05:51:28;101553.25;;;14.15;100.00
10071;BME280;5074;53.720;10.014;2023-06-10T05:53:56;101560.41;;;14.16;100.00
10071;BME280;5074;53.720;10.014;2023-06-10T05:56:24;101548.69;;;14.17;100.00
10071;BME280;5074;53.720;10.014;2023-06-10T05:58:54;101544.16;;;14.19;100.00
10071;BME280;5074;53.720;10.014;2023-06-10T06:01:22;101541.59;;;14.16;100.00
10071;BME280;5074;53.720;10.014;2023-06-10T06:03:50;101543.78;;;14.28;100.00
10071;BME280;5074;53.720;10.014;2023-06-10T06:06:18;101549.09;;;14.30;100.00
10071;BME280;5074;53.720;10.014;2023-06-10T06:08:47;101539.00;;;14.36;100.00
10071;BME280;5074;53.720;10.014;2023-06-10T06:11:15;101538.69;;;14.44;100.00
10071;BME280;5074;53.720;10.014;2023-06-10T06:13:43;101532.19;;;14.50;100.00
10071;BME280;5074;53.720;10.014;2023-06-10T06:16:13;101540.97;;;14.55;100.00
10071;BME280;5074;53.720;10.014;2023-06-10T06:18:42;101532.56;;;14.64;100.00
10071;BME280;5074;53.720;10.014;2023-06-10T06:21:10;101535.81;;;14.72;100.00
10071;BME280;5074;53.720;10.014;2023-06-10T06:23:38;101536.47;;;14.79;100.00
10071;BME280;5074;53.720;10.014;2023-06-10T06:26:07;101540.69;;;14.85;100.00
10071;BME280;5074;53.720;10.014;2023-06-10T06:28:35;101532.91;;;14.99;100.00
10071;BME280;5074;53.720;10.014;2023-06-10T06:31:03;101534.63;;;15.02;100.00
10071;BME280;5074;53.720;10.014;2023-06-10T06:33:32;101530.19;;;15.01;100.00
10071;BME280;5074;53.720;10.014;2023-06-10T06:36:01;101529.16;;;15.03;100.00
10071;BME280;5074;53.720;10.014;2023-06-10T06:38:29;101536.19;;;15.07;100.00
10071;BME280;5074;53.720;10.014;2023-06-10T06:40:57;101536.66;;;15.17;100.00
10071;BME280;5074;53.720;10.014;2023-06-10T06:43:29;101532.56;;;15.29;100.00
10071;BME280;5074;53.720;10.014;2023-06-10T06:45:57;101534.88;;;15.38;100.00
10071;BME280;5074;53.720;10.014;2023-06-10T06:48:25;101532.84;;;15.43;100.00
10071;BME280;5074;53.720;10.014;2023-06-10T06:50:55;101537.03;;;15.71;100.00
10071;BME280;5074;53.720;10.014;2023-06-10T06:53:25;101532.13;;;15.81;100.00
10071;BME280;5074;53.720;10.014;2023-06-10T06:55:57;101529.84;;;15.92;100.00
10071;BME280;5074;53.720;10.014;2023-06-10T06:58:25;101539.69;;;15.93;100.00
10071;BME280;5074;53.720;10.014;2023-06-10T07:00:53;101533.38;;;15.93;100.00
10071;BME280;5074;53.720;10.014;2023-06-10T07:03:21;101530.38;;;16.01;100.00
10071;BME280;5074;53.720;10.014;2023-06-10T07:05:49;101539.34;;;16.20;100.00
10071;BME280;5074;53.720;10.014;2023-06-10T07:08:19;101546.88;;;16.32;100.00
10071;BME280;5074;53.720;10.014;2023-06-10T07:10:47;101537.09;;;16.30;100.00
10071;BME280;5074;53.720;10.014;2023-06-10T07:13:15;101549.84;;;16.26;100.00
10071;BME280;5074;53.720;10.014;2023-06-10T07:15:43;101545.47;;;16.24;100.00
10071;BME280;5074;53.720;10.014;2023-06-10T07:18:11;101543.72;;;16.23;100.00
10071;BME280;5074;53.720;10.014;2023-06-10T07:20:39;101547.81;;;16.31;100.00
10071;BME280;5074;53.720;10.014;2023-06-10T07:23:08;101552.47;;;16.47;100.00
10071;BME280;5074;53.720;10.014;2023-06-10T07:25:37;101553.88;;;16.56;100.00
10071;BME280;5074;53.720;10.014;2023-06-10T07:28:05;101549.63;;;16.69;100.00
10071;BME280;5074;53.720;10.014;2023-06-10T07:30:33;101562.88;;;16.74;100.00
10071;BME280;5074;53.720;10.014;2023-06-10T07:33:01;101555.75;;;16.73;100.00
10071;BME280;5074;53.720;10.014;2023-06-10T07:35:30;101562.69;;;16.78;100.00
10071;BME280;5074;53.720;10.014;2023-06-10T07:37:58;101567.50;;;16.72;100.00
10071;BME280;5074;53.720;10.014;2023-06-10T07:40:26;101554.00;;;16.72;100.00
10071;BME280;5074;53.720;10.014;2023-06-10T07:42:55;101561.78;;;16.78;100.00
10071;BME280;5074;53.720;10.014;2023-06-10T07:45:24;101551.88;;;16.78;100.00
10071;BME280;5074;53.720;10.014;2023-06-10T07:47:52;101551.00;;;16.78;100.00
10071;BME280;5074;53.720;10.014;2023-06-10T07:50:20;101547.66;;;16.73;100.00
10071;BME280;5074;53.720;10.014;2023-06-10T07:52:48;101551.50;;;16.86;100.00
10071;BME280;5074;53.720;10.014;2023-06-10T07:55:16;101539.84;;;16.86;100.00
10071;BME280;5074;53.720;10.014;2023-06-10T07:57:44;101545.31;;;17.03;100.00
10071;BME280;5074;53.720;10.014;2023-06-10T08:00:14;101547.09;;;17.02;100.00
10071;BME280;5074;53.720;10.014;2023-06-10T08:02:42;101547.03;;;17.04;100.00
10071;BME280;5074;53.720;10.014;2023-06-10T08:05:11;101544.03;;;17.10;100.00
10071;BME280;5074;53.720;10.014;2023-06-10T08:07:40;101542.13;;;17.12;100.00
10071;BME280;5074;53.720;10.014;2023-06-10T08:10:08;101543.16;;;17.27;100.00
10071;BME280;5074;53.720;10.014;2023-06-10T08:12:36;101541.19;;;17.31;100.00
10071;BME280;5074;53.720;10.014;2023-06-10T08:15:05;101541.59;;;17.41;100.00
10071;BME280;5074;53.720;10.014;2023-06-10T08:17:37;101536.09;;;17.60;100.00
10071;BME280;5074;53.720;10.014;2023-06-10T08:20:06;101548.25;;;17.68;100.00
10071;BME280;5074;53.720;10.014;2023-06-10T08:22:34;101547.59;;;17.63;100.00
10071;BME280;5074;53.720;10.014;2023-06-10T08:25:03;101534.34;;;17.59;100.00
10071;BME280;5074;53.720;10.014;2023-06-10T08:27:31;101549.53;;;17.61;100.00
10071;BME280;5074;53.720;10.014;2023-06-10T08:29:59;101558.50;;;17.62;100.00
10071;BME280;5074;53.720;10.014;2023-06-10T08:32:27;101544.03;;;17.63;100.00
10071;BME280;5074;53.720;10.014;2023-06-10T08:34:57;101543.97;;;17.64;100.00
10071;BME280;5074;53.720;10.014;2023-06-10T08:37:25;101545.72;;;17.65;100.00
10071;BME280;5074;53.720;10.014;2023-06-10T08:39:53;101553.25;;;17.76;100.00
10071;BME280;5074;53.720;10.014;2023-06-10T08:42:23;101553.25;;;17.76;100.00
10071;BME280;5074;53.720;10.014;2023-06-10T08:44:53;101555.16;;;17.92;100.00
10071;BME280;5074;53.720;10.014;2023-06-10T08:47:23;101556.38;;;18.19;100.00
10071;BME280;5074;53.720;10.014;2023-06-10T08:49:52;101551.00;;;18.02;100.00
10071;BME280;5074;53.720;10.014;2023-06-10T08:52:26;101554.88;;;18.14;100.00
10071;BME280;5074;53.720;10.014;2023-06-10T08:54:59;101549.75;;;18.25;100.00
10071;BME280;5074;53.720;10.014;2023-06-10T08:57:27;101551.59;;;18.40;100.00
10071;BME280;5074;53.720;10.014;2023-06-10T08:59:57;101555.19;;;18.41;100.00
10071;BME280;5074;53.720;10.014;2023-06-10T09:02:27;101550.03;;;18.36;100.00
10071;BME280;5074;53.720;10.014;2023-06-10T09:04:55;101545.56;;;18.35;100.00
10071;BME280;5074;53.720;10.014;2023-06-10T09:07:25;101544.19;;;18.44;100.00
10071;BME280;5074;53.720;10.014;2023-06-10T09:09:54;101546.97;;;18.43;100.00
10071;BME280;5074;53.720;10.014;2023-06-10T09:12:23;101542.19;;;18.32;100.00
10071;BME280;5074;53.720;10.014;2023-06-10T09:14:51;101542.00;;;18.35;100.00
10071;BME280;5074;53.720;10.014;2023-06-10T09:17:19;101542.53;;;18.42;100.00
10071;BME280;5074;53.720;10.014;2023-06-10T09:19:48;101538.75;;;18.44;100.00
10071;BME280;5074;53.720;10.014;2023-06-10T09:22:17;101534.56;;;18.38;100.00
10071;BME280;5074;53.720;10.014;2023-06-10T09:24:48;101538.78;;;18.60;100.00
10071;BME280;5074;53.720;10.014;2023-06-10T09:27:16;101527.69;;;18.81;100.00
10071;BME280;5074;53.720;10.014;2023-06-10T09:29:47;101535.38;;;19.04;100.00
10071;BME280;5074;53.720;10.014;2023-06-10T09:32:17;101542.34;;;19.08;100.00
10071;BME280;5074;53.720;10.014;2023-06-10T09:34:45;101549.25;;;18.82;100.00
10071;BME280;5074;53.720;10.014;2023-06-10T09:37:19;101542.97;;;18.98;100.00
10071;BME280;5074;53.720;10.014;2023-06-10T09:40:03;101546.06;;;19.22;100.00
10071;BME280;5074;53.720;10.014;2023-06-10T09:42:36;101542.06;;;19.43;100.00
10071;BME280;5074;53.720;10.014;2023-06-10T09:45:06;101532.31;;;19.55;100.00
10071;BME280;5074;53.720;10.014;2023-06-10T09:47:34;101542.69;;;19.49;100.00
10071;BME280;5074;53.720;10.014;2023-06-10T09:50:03;101537.06;;;19.52;100.00
10071;BME280;5074;53.720;10.014;2023-06-10T09:52:33;101534.38;;;19.66;100.00
10071;BME280;5074;53.720;10.014;2023-06-10T09:55:02;101541.72;;;19.64;100.00
10071;BME280;5074;53.720;10.014;2023-06-10T09:57:32;101539.13;;;19.63;100.00
10071;BME280;5074;53.720;10.014;2023-06-10T10:00:04;101541.44;;;19.54;100.00
10071;BME280;5074;53.720;10.014;2023-06-10T10:02:32;101538.13;;;19.49;100.00
10071;BME280;5074;53.720;10.014;2023-06-10T10:05:02;101533.78;;;19.61;100.00
10071;BME280;5074;53.720;10.014;2023-06-10T10:07:31;101534.19;;;19.69;100.00
10071;BME280;5074;53.720;10.014;2023-06-10T10:10:01;101539.53;;;19.71;100.00
10071;BME280;5074;53.720;10.014;2023-06-10T10:12:29;101545.63;;;19.74;100.00
10071;BME280;5074;53.720;10.014;2023-06-10T10:14:58;101538.22;;;19.92;100.00
10071;BME280;5074;53.720;10.014;2023-06-10T10:17:27;101528.63;;;19.87;100.00
10071;BME280;5074;53.720;10.014;2023-06-10T10:19:58;101538.03;;;19.95;100.00
10071;BME280;5074;53.720;10.014;2023-06-10T10:22:31;101539.09;;;19.93;100.00
10071;BME280;5074;53.720;10.014;2023-06-10T10:25:09;101531.63;;;19.97;100.00
10071;BME280;5074;53.720;10.014;2023-06-10T10:27:43;101534.03;;;20.30;100.00
10071;BME280;5074;53.720;10.014;2023-06-10T10:30:14;101550.44;;;20.28;100.00
10071;BME280;5074;53.720;10.014;2023-06-10T10:32:52;101544.31;;;20.25;100.00
10071;BME280;5074;53.720;10.014;2023-06-10T10:35:23;101543.56;;;20.23;100.00
10071;BME280;5074;53.720;10.014;2023-06-10T10:37:53;101545.84;;;20.43;100.00
10071;BME280;5074;53.720;10.014;2023-06-10T10:40:24;101546.41;;;20.77;100.00
10071;BME280;5074;53.720;10.014;2023-06-10T10:42:53;101551.34;;;20.56;100.00
10071;BME280;5074;53.720;10.014;2023-06-10T10:45:22;101539.03;;;20.65;100.00
10071;BME280;5074;53.720;10.014;2023-06-10T10:47:52;101541.19;;;20.74;100.00
10071;BME280;5074;53.720;10.014;2023-06-10T10:50:23;101537.78;;;20.98;100.00
10071;BME280;5074;53.720;10.014;2023-06-10T10:52:53;101540.19;;;20.75;100.00
10071;BME280;5074;53.720;10.014;2023-06-10T10:55:23;101550.94;;;20.77;100.00
10071;BME280;5074;53.720;10.014;2023-06-10T10:57:55;101540.69;;;20.68;100.00
10071;BME280;5074;53.720;10.014;2023-06-10T11:00:27;101536.81;;;20.72;100.00
10071;BME280;5074;53.720;10.014;2023-06-10T11:02:58;101536.34;;;21.20;100.00
10071;BME280;5074;53.720;10.014;2023-06-10T11:05:38;101536.75;;;21.13;100.00
10071;BME280;5074;53.720;10.014;2023-06-10T11:08:08;101528.53;;;21.28;100.00
10071;BME280;5074;53.720;10.014;2023-06-10T11:10:38;101528.88;;;21.36;100.00
10071;BME280;5074;53.720;10.014;2023-06-10T11:13:08;101531.34;;;21.54;100.00
10071;BME280;5074;53.720;10.014;2023-06-10T11:15:44;101543.94;;;21.55;100.00
10071;BME280;5074;53.720;10.014;2023-06-10T11:18:21;101533.53;;;21.61;100.00
10071;BME280;5074;53.720;10.014;2023-06-10T11:20:58;101531.31;;;21.66;100.00
10071;BME280;5074;53.720;10.014;2023-06-10T11:23:41;101530.47;;;21.92;100.00
10071;BME280;5074;53.720;10.014;2023-06-10T11:26:20;101526.00;;;21.65;100.00
10071;BME280;5074;53.720;10.014;2023-06-10T11:29:07;101526.56;;;22.09;100.00
10071;BME280;5074;53.720;10.014;2023-06-10T11:31:43;101530.13;;;22.09;100.00
10071;BME280;5074;53.720;10.014;2023-06-10T11:34:12;101522.53;;;22.01;100.00
10071;BME280;5074;53.720;10.014;2023-06-10T11:36:42;101524.44;;;22.25;100.00
10071;BME280;5074;53.720;10.014;2023-06-10T11:39:12;101518.78;;;22.41;100.00
10071;BME280;5074;53.720;10.014;2023-06-10T11:41:42;101522.31;;;22.54;100.00
10071;BME280;5074;53.720;10.014;2023-06-10T11:44:11;101517.81;;;22.42;100.00
10071;BME280;5074;53.720;10.014;2023-06-10T11:46:44;101508.72;;;22.54;100.00
10071;BME280;5074;53.720;10.014;2023-06-10T11:49:12;101514.31;;;22.77;100.00
10071;BME280;5074;53.720;10.014;2023-06-10T11:51:41;101511.94;;;22.97;100.00
10071;BME280;5074;53.720;10.014;2023-06-10T11:54:16;101517.53;;;23.06;100.00
10071;BME280;5074;53.720;10.014;2023-06-10T11:56:46;101508.44;;;22.95;100.00
10071;BME280;5074;53.720;10.014;2023-06-10T11:59:15;101510.00;;;23.10;100.00
10071;BME280;5074;53.720;10.014;2023-06-10T12:01:44;101499.00;;;23.12;100.00
10071;BME280;5074;53.720;10.014;2023-06-10T12:04:14;101521.97;;;23.20;100.00
10071;BME280;5074;53.720;10.014;2023-06-10T12:06:44;101513.06;;;23.30;100.00
10071;BME280;5074;53.720;10.014;2023-06-10T12:09:24;101506.69;;;23.53;100.00
10071;BME280;5074;53.720;10.014;2023-06-10T12:11:58;101502.34;;;23.51;100.00
10071;BME280;5074;53.720;10.014;2023-06-10T12:14:55;101507.56;;;23.54;100.00
10071;BME280;5074;53.720;10.014;2023-06-10T12:17:36;101511.59;;;23.84;100.00
10071;BME280;5074;53.720;10.014;2023-06-10T12:20:06;101507.88;;;24.07;100.00
10071;BME280;5074;53.720;10.014;2023-06-10T12:22:39;101510.88;;;24.38;100.00
10071;BME280;5074;53.720;10.014;2023-06-10T12:25:08;101506.00;;;24.53;100.00
10071;BME280;5074;53.720;10.014;2023-06-10T12:27:41;101495.66;;;24.68;100.00
10071;BME280;5074;53.720;10.014;2023-06-10T12:30:20;101500.94;;;25.25;100.00
10071;BME280;5074;53.720;10.014;2023-06-10T12:32:50;101489.94;;;26.09;100.00
10071;BME280;5074;53.720;10.014;2023-06-10T12:35:20;101481.13;;;26.56;100.00
10071;BME280;5074;53.720;10.014;2023-06-10T12:37:55;101481.53;;;27.79;94.83
10071;BME280;5074;53.720;10.014;2023-06-10T12:40:27;101480.63;;;27.88;95.72
10071;BME280;5074;53.720;10.014;2023-06-10T12:42:57;101484.97;;;28.74;91.53
10071;BME280;5074;53.720;10.014;2023-06-10T12:45:26;101477.28;;;28.50;89.13
10071;BME280;5074;53.720;10.014;2023-06-10T12:48:06;101473.72;;;29.03;86.74
10071;BME280;5074;53.720;10.014;2023-06-10T12:50:36;101463.34;;;29.59;83.29
10071;BME280;5074;53.720;10.014;2023-06-10T12:53:06;101477.25;;;30.53;77.01